logo



Minimumtemperatur heute 14.9     Maximumtemperatur heute 27.2
Datum Zeit
MEZ
Lufttemperatur
C
Windrichtung
Grad
Wind Mittel
Km/h
Wind Min
Km/h
Wind Max
Km/h
rel. Feuchte
%
2019-09-16 21:40:00 19.2 236 0.1 0.1 0.7 90
2019-09-16 21:35:00 19.2 230 0.1 0.0 0.8 89
2019-09-16 21:30:00 19.3 210 0.1 0.1 0.6 90
2019-09-16 21:25:00 19.2 139 0.1 0.0 0.6 89
2019-09-16 21:20:00 19.3 106 0.0 0.0 0.4 89
2019-09-16 21:15:00 19.4 106 0.0 0.0 0.2 89
2019-09-16 21:10:00 19.6 105 0.1 0.0 1.6 88
2019-09-16 21:05:00 19.8 86 0.2 0.0 2.1 88
2019-09-16 21:00:00 19.9 106 0.2 0.1 1.5 87
2019-09-16 20:55:00 20.0 141 0.0 0.0 0.2 87
2019-09-16 20:50:00 20.2 142 0.2 0.0 2.4 86
2019-09-16 20:45:00 20.3 218 0.6 1.7 3.0 86
2019-09-16 20:40:00 20.3 206 0.3 0.1 2.0 86
2019-09-16 20:35:00 20.7 195 0.0 0.0 0.2 85
2019-09-16 20:30:00 20.9 256 0.1 0.0 1.0 85
2019-09-16 20:25:00 21.1 219 0.7 0.6 4.0 84
2019-09-16 20:20:00 21.3 269 1.2 3.3 5.8 83
2019-09-16 20:15:00 21.2 282 1.0 1.9 4.5 83
2019-09-16 20:10:00 21.2 280 1.2 2.9 5.7 84
2019-09-16 20:05:00 21.0 275 1.2 1.3 6.7 84
2019-09-16 20:00:00 20.8 328 0.5 0.8 3.2 85
2019-09-16 19:55:00 20.9 306 0.5 1.3 3.0 85
2019-09-16 19:50:00 21.0 313 0.9 1.7 4.7 85
2019-09-16 19:45:00 21.1 239 0.4 0.3 3.1 84
2019-09-16 19:40:00 21.0 314 0.5 0.0 3.7 84
2019-09-16 19:35:00 20.8 181 0.1 0.0 1.2 84
2019-09-16 19:30:00 21.0 142 0.1 0.0 1.0 83
2019-09-16 19:25:00 21.3 242 0.0 0.0 0.1 82
2019-09-16 19:20:00 21.4 90 0.0 0.0 0.1 82
2019-09-16 19:15:00 21.5 183 0.2 0.0 2.0 81
2019-09-16 19:10:00 21.6 229 0.5 1.2 2.7 82
2019-09-16 19:05:00 21.7 225 0.2 0.0 1.8 82
2019-09-16 19:00:00 21.8 282 0.5 0.2 3.4 81
2019-09-16 18:55:00 21.9 262 0.8 2.3 3.8 79
2019-09-16 18:50:00 22.0 247 0.8 1.3 4.3 78
2019-09-16 18:45:00 22.0 212 0.1 0.0 0.9 79
2019-09-16 18:40:00 22.1 260 0.1 0.0 2.5 79
2019-09-16 18:35:00 22.1 170 0.3 0.0 2.7 77
2019-09-16 18:30:00 22.6 287 0.1 0.0 2.1 77
2019-09-16 18:25:00 22.8 350 1.0 0.2 4.6 75
2019-09-16 18:20:00 23.3 337 0.6 0.8 4.4 70
2019-09-16 18:15:00 23.5 282 0.3 0.0 2.1 67
2019-09-16 18:10:00 23.6 232 0.5 0.9 3.0 67
2019-09-16 18:05:00 23.6 228 0.1 0.0 1.6 68
2019-09-16 18:00:00 23.9 147 0.1 0.0 1.2 68
2019-09-16 17:55:00 24.7 282 0.0 0.0 0.0 67
2019-09-16 17:50:00 24.9 0 0.0 0.0 0.7 69
2019-09-16 17:45:00 25.1 45 0.0 0.0 0.7 66
2019-09-16 17:40:00 25.1 148 0.4 0.2 2.1 64
2019-09-16 17:35:00 25.6 151 0.3 0.0 1.8 62
2019-09-16 17:30:00 26.3 192 0.0 0.0 0.4 63
2019-09-16 17:25:00 26.4 160 0.1 0.0 1.9 65
2019-09-16 17:20:00 26.7 220 0.0 0.0 0.7 65
2019-09-16 17:15:00 26.8 244 0.0 0.0 0.5 62
2019-09-16 17:10:00 27.2 232 0.2 0.0 1.8 59
2019-09-16 17:05:00 27.2 243 0.2 0.0 1.7 58
2019-09-16 17:00:00 27.2 185 0.4 0.1 2.4 58
2019-09-16 16:55:00 27.1 186 0.5 0.4 3.2 58
2019-09-16 16:50:00 26.9 318 0.6 0.8 3.2 53
2019-09-16 16:45:00 26.9 149 0.3 0.0 1.7 53
2019-09-16 16:40:00 26.7 104 0.5 0.0 5.3 53
2019-09-16 16:35:00 26.8 88 0.4 0.1 3.2 54
2019-09-16 16:30:00 26.7 50 0.7 0.0 6.3 54
2019-09-16 16:25:00 26.6 112 1.6 2.9 8.0 54
2019-09-16 16:20:00 26.8 117 1.0 1.3 8.2 54
2019-09-16 16:15:00 26.8 76 0.9 0.8 6.1 55
2019-09-16 16:10:00 26.8 127 0.8 0.2 7.8 56
2019-09-16 16:05:00 26.8 113 0.8 0.0 7.7 57
2019-09-16 16:00:00 26.6 39 0.8 0.2 5.9 57
2019-09-16 15:55:00 26.8 106 1.1 1.8 6.5 56
2019-09-16 15:50:00 26.9 79 0.8 0.0 7.5 56
2019-09-16 15:45:00 27.0 106 0.6 0.4 3.8 57
2019-09-16 15:40:00 26.9 0 0.0 0.0 0.0 57
2019-09-16 15:35:00 26.7 113 1.1 1.3 8.3 56
2019-09-16 15:30:00 26.9 99 1.0 0.1 8.4 57
2019-09-16 15:25:00 26.7 116 1.3 2.0 8.2 56
2019-09-16 15:20:00 26.6 99 0.9 0.3 6.5 56
2019-09-16 15:15:00 26.7 84 0.7 0.1 6.6 57
2019-09-16 15:10:00 26.6 116 0.8 0.0 9.8 61
2019-09-16 15:05:00 26.4 128 1.3 2.1 7.6 60
2019-09-16 15:00:00 26.7 23 1.1 0.9 7.4 59
2019-09-16 14:55:00 26.9 117 0.6 0.2 3.7 59
2019-09-16 14:50:00 26.9 278 0.3 0.0 2.5 61
2019-09-16 14:45:00 26.4 45 1.0 0.2 8.3 63
2019-09-16 14:40:00 26.3 131 1.1 0.4 8.7 60
2019-09-16 14:35:00 26.3 259 0.9 0.6 8.1 60
2019-09-16 14:30:00 26.1 143 0.7 0.0 4.9 60
2019-09-16 14:25:00 25.9 118 1.4 0.2 11.1 61
2019-09-16 14:20:00 25.9 111 1.3 0.0 9.5 59
2019-09-16 14:15:00 25.9 111 1.7 2.3 8.9 59
2019-09-16 14:10:00 26.0 119 1.1 0.5 6.2 60
2019-09-16 14:05:00 25.9 70 0.9 0.6 8.7 60
2019-09-16 14:00:00 25.8 72 1.3 2.2 8.2 61
2019-09-16 13:55:00 25.7 158 1.3 2.1 8.1 59
2019-09-16 13:50:00 25.8 98 1.0 1.6 9.0 59
2019-09-16 13:45:00 25.6 80 1.8 3.5 9.2 61
2019-09-16 13:40:00 25.7 121 0.8 0.3 5.2 60
2019-09-16 13:35:00 25.6 0 0.0 0.0 0.0 60
2019-09-16 13:30:00 25.5 331 0.6 0.8 4.1 59
2019-09-16 13:25:00 25.5 263 0.4 0.5 2.4 60
2019-09-16 13:20:00 25.5 188 0.5 0.8 3.1 60
2019-09-16 13:15:00 25.2 182 0.9 0.4 6.5 61
2019-09-16 13:10:00 25.0 145 0.6 0.5 6.9 64
2019-09-16 13:05:00 24.9 62 0.8 1.2 4.5 64
2019-09-16 13:00:00 24.7 163 0.6 0.1 4.8 63
2019-09-16 12:55:00 24.5 124 0.5 0.1 4.0 64
2019-09-16 12:50:00 24.5 132 0.5 0.3 4.0 66
2019-09-16 12:45:00 24.3 146 0.8 2.0 5.8 64
2019-09-16 12:40:00 24.3 127 0.8 0.1 5.4 65
2019-09-16 12:35:00 24.0 138 0.3 0.0 3.3 66
2019-09-16 12:30:00 23.7 125 1.0 0.6 7.1 65
2019-09-16 12:25:00 23.7 211 0.6 0.2 5.2 66
2019-09-16 12:20:00 23.5 133 0.6 0.0 3.6 68
2019-09-16 12:15:00 23.1 267 0.4 0.0 3.6 68
2019-09-16 12:10:00 22.9 325 0.9 2.0 4.1 68
2019-09-16 12:05:00 22.6 316 0.9 1.8 4.5 68
2019-09-16 12:00:00 22.4 283 0.8 2.1 4.2 70
2019-09-16 11:55:00 22.2 261 0.7 2.0 3.4 69
2019-09-16 11:50:00 22.3 275 0.6 1.4 3.8 69
2019-09-16 11:45:00 22.1 269 0.6 1.0 3.9 70
2019-09-16 11:40:00 21.8 239 0.7 0.9 3.6 70
2019-09-16 11:35:00 21.5 262 1.1 3.1 5.3 72
2019-09-16 11:30:00 21.2 253 1.3 3.3 5.6 75
2019-09-16 11:25:00 20.9 239 1.0 2.9 4.3 76
2019-09-16 11:20:00 21.0 254 0.6 0.7 3.3 76
2019-09-16 11:15:00 20.8 260 0.6 1.4 2.9 76
2019-09-16 11:10:00 20.5 245 0.5 1.2 2.7 76
2019-09-16 11:05:00 20.3 258 0.8 1.7 4.2 76
2019-09-16 11:00:00 20.1 245 1.0 2.8 4.4 77
2019-09-16 10:55:00 20.0 248 0.9 1.9 4.3 77
2019-09-16 10:50:00 19.9 222 0.7 1.9 3.5 78
2019-09-16 10:45:00 19.5 231 0.8 2.1 4.0 80
2019-09-16 10:40:00 19.2 240 1.2 2.7 5.3 82
2019-09-16 10:35:00 19.1 232 0.9 2.3 5.0 81
2019-09-16 10:30:00 19.0 268 0.7 1.5 4.0 81
2019-09-16 10:25:00 18.9 311 0.4 0.4 3.9 84
2019-09-16 10:20:00 18.6 273 0.6 1.1 3.1 86
2019-09-16 10:15:00 18.3 235 0.9 2.2 4.3 87
2019-09-16 10:10:00 18.0 238 1.0 2.5 4.8 88
2019-09-16 10:05:00 17.8 230 1.1 2.9 5.2 88
2019-09-16 10:00:00 17.8 268 1.0 2.0 4.7 88
2019-09-16 09:55:00 17.6 294 1.2 3.3 5.2 89
2019-09-16 09:50:00 17.3 311 1.4 3.7 5.8 89
2019-09-16 09:45:00 17.1 311 1.4 3.6 6.3 89
www.zamg.ac.at

klagenfurt@zamg.ac.at